< < Back
Terminal Aerodrome Forecast


Current Version              Previous Versions:   1  2  3  4  5  6  7  8  9  

Terminal Aerodrome Forecast

955
FTUS42 KILM 152000 CCA
TAFILM
TAF COR
KILM 152053Z 1521/1618 20016G24KT 6SM -SHRA BR SCT025 BKN035
     FM152200 23016G24KT 4SM SHRA SCT014 BKN025
     FM160200 27012G22KT 3SM -RA BR BKN012 OVC025
     FM160500 34014G19KT P6SM SCT010
     FM161300 36018G26KT P6SM SKC=

Latest METAR

095
SAUS70 KWBC 161000 RRG
MTRILM
METAR KILM 160953Z AUTO 01012KT 10SM FEW024 05/01 A3017 RMK AO2 SLP214
T00500006


USA.gov is the U.S. government's official web portal to all federal, state and local government web resources and services.